Time;durP1;ratioP1;P1;durP2;ratioP2;P2;SDS_P1;SDS_P2;PMS_P1;PMS_P2;Temp;Humidity;BMP_temperature;BMP_pressure;BME280_temperature;BME280_humidity;BME280_pressure;Samples;Min_cycle;Max_cycle;Signal;HPM_P1;HPM_P2
2023/07/08 02:01:07;;;;;;;9.90;3.53;;;;;;;;;;4741642;28;20099;-77
2023/07/08 02:03:34;;;;;;;6.03;3.12;;;;;;;;;;4282115;33;20084;-77
2023/07/08 02:06:00;;;;;;;4.45;2.85;;;;;;;;;;4280838;33;20033;-77
2023/07/08 02:08:26;;;;;;;9.00;3.40;;;;;;;;;;4281451;33;20381;-78
2023/07/08 02:10:54;;;;;;;6.47;3.25;;;;;;;;;;4282044;33;20194;-79
2023/07/08 02:13:21;;;;;;;7.47;3.45;;;;;;;;;;4282115;33;20071;-78
2023/07/08 02:15:47;;;;;;;10.38;3.80;;;;;;;;;;4281998;33;20046;-77
2023/07/08 02:18:14;;;;;;;5.00;2.65;;;;;;;;;;4280216;33;20058;-78
2023/07/08 02:20:44;;;;;;;7.62;3.42;;;;;;;;;;4283786;33;20041;-79
2023/07/08 02:23:11;;;;;;;5.45;2.85;;;;;;;;;;4284981;33;20046;-78
2023/07/08 02:25:37;;;;;;;9.48;3.67;;;;;;;;;;4284160;33;20399;-78
2023/07/08 02:28:04;;;;;;;5.90;3.08;;;;;;;;;;4282243;33;20049;-77
2023/07/08 02:30:30;;;;;;;16.40;3.55;;;;;;;;;;4283507;33;20096;-79
2023/07/08 02:32:56;;;;;;;8.30;3.37;;;;;;;;;;4284702;33;20071;-78
2023/07/08 02:35:25;;;;;;;10.85;3.58;;;;;;;;;;4284787;33;20349;-79
2023/07/08 02:37:52;;;;;;;9.80;3.40;;;;;;;;;;4284666;33;20064;-79
2023/07/08 02:40:18;;;;;;;9.68;3.15;;;;;;;;;;4284297;33;20451;-78
2023/07/08 02:42:44;;;;;;;5.87;3.22;;;;;;;;;;4283333;33;20574;-79
2023/07/08 02:45:11;;;;;;;9.43;2.75;;;;;;;;;;4284454;33;20203;-79
2023/07/08 02:47:38;;;;;;;7.55;4.05;;;;;;;;;;4284911;33;20103;-79
2023/07/08 02:50:04;;;;;;;3.42;2.85;;;;;;;;;;4283443;33;20070;-78
2023/07/08 02:52:31;;;;;;;5.00;3.17;;;;;;;;;;4283725;33;20353;-76
2023/07/08 02:54:56;;;;;;;4.60;3.22;;;;;;;;;;4283656;33;20064;-79
2023/07/08 02:57:23;;;;;;;8.88;3.55;;;;;;;;;;4284244;33;20208;-78
2023/07/08 02:59:49;;;;;;;9.98;3.42;;;;;;;;;;4284491;33;20045;-79
2023/07/08 03:02:15;;;;;;;5.82;3.30;;;;;;;;;;4284196;33;20075;-78
2023/07/08 03:04:42;;;;;;;6.35;3.12;;;;;;;;;;4282337;33;20075;-78
2023/07/08 03:07:11;;;;;;;7.70;3.58;;;;;;;;;;4284389;33;20100;-78
2023/07/08 03:09:38;;;;;;;9.60;3.65;;;;;;;;;;4284242;33;20070;-79
2023/07/08 03:12:06;;;;;;;5.10;3.25;;;;;;;;;;4284031;33;20071;-78
2023/07/08 03:14:31;;;;;;;7.85;3.50;;;;;;;;;;4283826;33;20042;-78
2023/07/08 03:16:58;;;;;;;9.38;3.62;;;;;;;;;;4282052;33;20092;-77
2023/07/08 03:19:25;;;;;;;5.72;3.45;;;;;;;;;;4283957;33;20976;-78
2023/07/08 03:21:52;;;;;;;11.30;3.12;;;;;;;;;;4283890;33;20113;-78
2023/07/08 03:24:18;;;;;;;5.03;3.12;;;;;;;;;;4283729;33;20101;-78
2023/07/08 03:26:45;;;;;;;5.03;3.90;;;;;;;;;;4283809;33;20062;-79
2023/07/08 03:29:15;;;;;;;8.43;4.12;;;;;;;;;;4282233;33;20067;-78
2023/07/08 03:31:43;;;;;;;6.40;4.47;;;;;;;;;;4283301;33;20608;-78
2023/07/08 03:34:13;;;;;;;7.28;4.18;;;;;;;;;;4282907;33;20054;-78
2023/07/08 03:36:48;;;;;;;6.62;3.87;;;;;;;;;;4283839;33;20054;-77
2023/07/08 03:39:21;;;;;;;8.75;3.42;;;;;;;;;;4282126;33;20061;-78
2023/07/08 03:41:49;;;;;;;9.25;4.43;;;;;;;;;;4284039;33;20414;-78
2023/07/08 03:44:15;;;;;;;10.52;3.78;;;;;;;;;;4283696;33;20090;-78
2023/07/08 03:46:45;;;;;;;5.47;3.62;;;;;;;;;;4283629;33;20067;-78
2023/07/08 03:49:14;;;;;;;9.65;3.62;;;;;;;;;;4282725;33;20428;-79
2023/07/08 03:51:42;;;;;;;5.47;3.83;;;;;;;;;;4283798;33;20463;-77
2023/07/08 03:54:11;;;;;;;6.10;3.72;;;;;;;;;;4283146;33;20038;-78
2023/07/08 03:56:38;;;;;;;8.57;4.20;;;;;;;;;;4283630;33;20442;-77
2023/07/08 03:59:05;;;;;;;5.07;3.45;;;;;;;;;;4281446;33;20844;-77
2023/07/08 04:01:31;;;;;;;8.02;3.97;;;;;;;;;;4283536;33;20786;-77
2023/07/08 04:03:58;;;;;;;6.37;3.58;;;;;;;;;;4266360;33;20477;-76
2023/07/08 04:06:25;;;;;;;6.87;3.03;;;;;;;;;;4258000;33;20494;-77
2023/07/08 04:08:51;;;;;;;7.32;4.15;;;;;;;;;;4254734;33;20071;-77
2023/07/08 04:11:20;;;;;;;7.90;3.90;;;;;;;;;;4265721;33;20361;-78
2023/07/08 04:13:46;;;;;;;9.20;4.57;;;;;;;;;;4266597;33;20038;-78
2023/07/08 04:16:23;;;;;;;8.35;4.12;;;;;;;;;;4266431;33;20079;-78
2023/07/08 04:18:53;;;;;;;6.45;4.25;;;;;;;;;;4260189;33;20057;-75
2023/07/08 04:21:20;;;;;;;6.00;4.10;;;;;;;;;;4252305;33;20062;-78
2023/07/08 04:23:45;;;;;;;8.85;4.68;;;;;;;;;;4253338;33;20515;-76
2023/07/08 04:26:12;;;;;;;9.40;5.53;;;;;;;;;;4238204;33;20050;-77
2023/07/08 04:28:38;;;;;;;9.80;5.35;;;;;;;;;;4236501;33;20543;-77
2023/07/08 04:31:04;;;;;;;9.40;4.32;;;;;;;;;;4252413;33;20408;-78
2023/07/08 04:33:30;;;;;;;9.25;4.85;;;;;;;;;;4252225;33;20064;-78
2023/07/08 04:35:57;;;;;;;11.25;4.75;;;;;;;;;;4279631;33;20075;-78
2023/07/08 04:38:23;;;;;;;10.00;5.68;;;;;;;;;;4281775;33;20053;-78
2023/07/08 04:40:51;;;;;;;15.75;5.93;;;;;;;;;;4268323;33;20062;-78
2023/07/08 04:43:17;;;;;;;9.38;5.07;;;;;;;;;;4250199;33;20038;-80
2023/07/08 04:45:45;;;;;;;16.20;5.03;;;;;;;;;;4252531;33;20084;-78
2023/07/08 04:48:12;;;;;;;12.10;5.53;;;;;;;;;;4252461;33;20042;-78
2023/07/08 04:50:43;;;;;;;17.83;5.45;;;;;;;;;;4251472;33;20058;-77
2023/07/08 04:53:09;;;;;;;21.90;6.32;;;;;;;;;;4249528;33;20078;-78
2023/07/08 04:55:36;;;;;;;21.27;6.30;;;;;;;;;;4241919;33;20084;-79
2023/07/08 04:58:02;;;;;;;14.87;5.93;;;;;;;;;;4236775;33;20060;-78
2023/07/08 05:00:28;;;;;;;21.50;5.40;;;;;;;;;;4236280;33;20123;-78
2023/07/08 05:02:54;;;;;;;18.08;5.28;;;;;;;;;;4237619;33;20178;-78
2023/07/08 05:05:21;;;;;;;13.50;4.95;;;;;;;;;;4235592;33;20068;-78
2023/07/08 05:07:49;;;;;;;9.77;4.60;;;;;;;;;;4237825;33;20067;-78
2023/07/08 05:10:15;;;;;;;8.27;3.78;;;;;;;;;;4237652;33;20050;-78
2023/07/08 05:12:42;;;;;;;9.65;4.35;;;;;;;;;;4237722;33;20429;-79
2023/07/08 05:15:09;;;;;;;21.15;4.50;;;;;;;;;;4248829;33;20093;-77
2023/07/08 05:17:36;;;;;;;16.37;4.05;;;;;;;;;;4222454;34;20046;-78
2023/07/08 05:20:03;;;;;;;10.18;3.47;;;;;;;;;;4223385;34;20084;-77
2023/07/08 05:22:29;;;;;;;15.00;4.43;;;;;;;;;;4246536;33;20525;-78
2023/07/08 05:24:55;;;;;;;13.90;3.37;;;;;;;;;;4235136;33;20050;-78
2023/07/08 05:27:22;;;;;;;18.00;4.18;;;;;;;;;;4235884;33;20171;-76
2023/07/08 05:29:49;;;;;;;10.82;3.30;;;;;;;;;;4235970;33;20462;-78
2023/07/08 05:32:15;;;;;;;12.00;3.75;;;;;;;;;;4237253;33;20325;-79
2023/07/08 05:34:41;;;;;;;6.57;2.33;;;;;;;;;;4228328;33;20212;-77
2023/07/08 05:37:07;;;;;;;9.63;3.00;;;;;;;;;;4223104;34;20081;-77
2023/07/08 05:39:34;;;;;;;6.22;2.75;;;;;;;;;;4222482;34;20039;-78
2023/07/08 05:42:00;;;;;;;16.05;2.85;;;;;;;;;;4221205;34;20065;-76
2023/07/08 05:44:26;;;;;;;6.00;2.42;;;;;;;;;;4210090;34;20068;-76
2023/07/08 05:46:52;;;;;;;5.60;2.80;;;;;;;;;;4195541;34;20047;-77
2023/07/08 05:49:18;;;;;;;3.00;2.55;;;;;;;;;;4204098;34;20091;-77
2023/07/08 05:51:44;;;;;;;2.95;1.80;;;;;;;;;;4209491;34;20059;-77
2023/07/08 05:54:11;;;;;;;5.82;1.70;;;;;;;;;;4207901;34;20047;-77
2023/07/08 05:56:37;;;;;;;3.10;1.70;;;;;;;;;;4222736;34;20035;-78
2023/07/08 05:59:03;;;;;;;13.65;1.98;;;;;;;;;;4226008;34;20066;-78
2023/07/08 06:01:30;;;;;;;3.53;1.62;;;;;;;;;;4223887;34;20059;-78
2023/07/08 06:04:03;;;;;;;2.00;1.83;;;;;;;;;;4225661;34;20055;-78
2023/07/08 06:06:30;;;;;;;3.50;1.58;;;;;;;;;;4223196;34;20077;-79
2023/07/08 06:08:56;;;;;;;3.30;1.50;;;;;;;;;;4224393;34;20054;-77
2023/07/08 06:11:22;;;;;;;5.12;1.62;;;;;;;;;;4196613;34;20055;-76
2023/07/08 06:13:48;;;;;;;4.22;1.73;;;;;;;;;;4197682;34;20095;-77
2023/07/08 06:16:14;;;;;;;3.58;1.85;;;;;;;;;;4220110;34;20110;-77
2023/07/08 06:18:40;;;;;;;2.60;1.67;;;;;;;;;;4246300;33;20072;-79
2023/07/08 06:21:06;;;;;;;3.42;2.00;;;;;;;;;;4253950;33;20553;-80
2023/07/08 06:23:32;;;;;;;8.43;1.55;;;;;;;;;;4253841;33;20058;-79
2023/07/08 06:25:59;;;;;;;7.03;1.85;;;;;;;;;;4254107;33;20401;-79
2023/07/08 06:28:31;;;;;;;1.92;1.48;;;;;;;;;;4250890;33;20050;-78
2023/07/08 06:30:57;;;;;;;1.50;1.40;;;;;;;;;;4253766;33;20054;-77
2023/07/08 06:33:23;;;;;;;3.75;1.87;;;;;;;;;;4253713;33;20084;-77
2023/07/08 06:35:50;;;;;;;6.53;1.77;;;;;;;;;;4242843;33;20042;-79
2023/07/08 06:38:16;;;;;;;2.28;1.35;;;;;;;;;;4250683;33;20504;-77
2023/07/08 06:40:42;;;;;;;1.23;1.23;;;;;;;;;;4236574;33;20039;-78
2023/07/08 06:43:08;;;;;;;1.25;1.20;;;;;;;;;;4250517;33;20498;-78
2023/07/08 06:45:36;;;;;;;4.78;1.48;;;;;;;;;;4253690;33;20173;-78
2023/07/08 06:48:02;;;;;;;5.85;1.65;;;;;;;;;;4253544;33;20384;-77
2023/07/08 06:50:28;;;;;;;4.07;1.58;;;;;;;;;;4252833;33;20054;-78
2023/07/08 06:52:55;;;;;;;7.97;1.48;;;;;;;;;;4258366;33;20046;-77
2023/07/08 06:55:21;;;;;;;4.90;1.27;;;;;;;;;;4267142;33;20030;-78
2023/07/08 06:57:47;;;;;;;1.50;1.40;;;;;;;;;;4265857;33;20022;-77
2023/07/08 07:00:14;;;;;;;11.02;1.98;;;;;;;;;;4261234;33;20050;-78
2023/07/08 07:02:40;;;;;;;1.70;1.60;;;;;;;;;;4260857;33;20068;-77
2023/07/08 07:05:06;;;;;;;4.62;1.48;;;;;;;;;;4251993;33;20046;-77
2023/07/08 07:07:34;;;;;;;4.32;1.90;;;;;;;;;;4260198;33;20071;-77
2023/07/08 07:10:00;;;;;;;2.85;1.40;;;;;;;;;;4266944;33;20088;-78
2023/07/08 07:12:26;;;;;;;4.15;1.58;;;;;;;;;;4274976;33;20433;-77
2023/07/08 07:14:53;;;;;;;4.30;1.62;;;;;;;;;;4271891;33;20049;-77
2023/07/08 07:17:20;;;;;;;1.85;1.75;;;;;;;;;;4239243;33;20190;-77
2023/07/08 07:19:47;;;;;;;2.37;1.73;;;;;;;;;;4239256;33;20052;-76
2023/07/08 07:22:14;;;;;;;3.90;1.55;;;;;;;;;;4240193;33;20047;-78
2023/07/08 07:24:40;;;;;;;7.05;1.70;;;;;;;;;;4238657;33;20050;-78
2023/07/08 07:27:07;;;;;;;3.47;1.80;;;;;;;;;;4239104;33;20034;-78
2023/07/08 07:29:45;;;;;;;1.35;1.35;;;;;;;;;;4239466;33;20077;-77
2023/07/08 07:32:11;;;;;;;2.12;1.80;;;;;;;;;;4239726;33;20077;-80
2023/07/08 07:34:38;;;;;;;1.80;1.52;;;;;;;;;;4239725;33;20147;-77
2023/07/08 07:37:05;;;;;;;3.33;1.50;;;;;;;;;;4237897;33;20050;-78
2023/07/08 07:39:30;;;;;;;1.98;1.30;;;;;;;;;;4239988;33;20368;-78
2023/07/08 07:41:57;;;;;;;2.03;1.85;;;;;;;;;;4254867;33;20046;-79
2023/07/08 07:44:24;;;;;;;3.25;1.67;;;;;;;;;;4269484;33;20108;-78
2023/07/08 07:46:52;;;;;;;1.30;1.27;;;;;;;;;;4277457;33;20055;-77
2023/07/08 07:49:18;;;;;;;1.83;1.67;;;;;;;;;;4278655;33;20122;-79
2023/07/08 07:51:44;;;;;;;2.53;1.50;;;;;;;;;;4282254;33;20097;-78
2023/07/08 07:54:11;;;;;;;4.20;1.40;;;;;;;;;;4277532;33;20063;-78
2023/07/08 07:56:37;;;;;;;1.23;1.20;;;;;;;;;;4274478;33;20391;-78
2023/07/08 07:59:03;;;;;;;2.72;1.67;;;;;;;;;;4273298;33;20045;-77
2023/07/08 08:01:29;;;;;;;4.72;2.17;;;;;;;;;;4275484;33;20482;-78
2023/07/08 08:03:56;;;;;;;1.80;1.70;;;;;;;;;;4276082;33;20448;-78
2023/07/08 08:06:22;;;;;;;3.37;1.40;;;;;;;;;;4275781;33;20037;-78
2023/07/08 08:08:49;;;;;;;3.75;1.45;;;;;;;;;;4273125;33;20093;-78
2023/07/08 08:11:15;;;;;;;7.22;1.73;;;;;;;;;;4275970;33;20099;-77
2023/07/08 08:13:42;;;;;;;2.37;1.37;;;;;;;;;;4245428;33;20034;-78
2023/07/08 08:16:08;;;;;;;1.10;1.10;;;;;;;;;;4244243;33;20074;-77
2023/07/08 08:18:34;;;;;;;3.53;1.30;;;;;;;;;;4244385;33;20062;-78
2023/07/08 08:21:00;;;;;;;6.22;1.50;;;;;;;;;;4247714;33;20072;-77
2023/07/08 08:23:26;;;;;;;2.28;2.15;;;;;;;;;;4252897;33;20055;-78
2023/07/08 08:25:52;;;;;;;8.50;3.03;;;;;;;;;;4252616;33;20068;-77
2023/07/08 08:28:19;;;;;;;2.17;1.37;;;;;;;;;;4219879;34;20098;-77
2023/07/08 08:30:50;;;;;;;2.87;1.73;;;;;;;;;;4208603;34;20092;-76
2023/07/08 08:33:17;;;;;;;2.00;1.67;;;;;;;;;;4216283;34;20058;-78
2023/07/08 08:35:44;;;;;;;2.60;1.75;;;;;;;;;;4219388;33;20050;-78
2023/07/08 08:38:10;;;;;;;5.18;1.67;;;;;;;;;;4219878;34;20141;-79
2023/07/08 08:40:39;;;;;;;5.50;3.30;;;;;;;;;;4220309;33;20423;-78
2023/07/08 08:43:09;;;;;;;1.65;1.55;;;;;;;;;;4213255;34;20076;-78
2023/07/08 08:45:55;;;;;;;2.45;2.25;;;;;;;;;;4211538;34;20544;-78
2023/07/08 08:48:23;;;;;;;7.40;2.50;;;;;;;;;;4242739;33;20067;-78
2023/07/08 08:50:52;;;;;;;1.87;1.55;;;;;;;;;;4238833;33;20051;-77
2023/07/08 08:53:20;;;;;;;4.40;2.60;;;;;;;;;;4215388;34;20050;-77
2023/07/08 08:55:50;;;;;;;3.62;2.22;;;;;;;;;;4227862;33;20050;-76
2023/07/08 08:58:35;;;;;;;6.03;2.30;;;;;;;;;;4225859;33;20036;-76
2023/07/08 09:01:03;;;;;;;3.40;1.50;;;;;;;;;;4242259;33;20119;-78
2023/07/08 09:03:33;;;;;;;1.70;1.60;;;;;;;;;;4237334;33;20046;-77
2023/07/08 09:05:59;;;;;;;3.15;1.60;;;;;;;;;;4235003;33;20026;-76
2023/07/08 09:08:35;;;;;;;2.00;1.85;;;;;;;;;;4237502;33;20074;-78
2023/07/08 09:11:11;;;;;;;3.20;1.50;;;;;;;;;;4231654;33;20039;-77
2023/07/08 09:13:38;;;;;;;6.57;2.65;;;;;;;;;;4236987;33;20118;-78
2023/07/08 09:16:22;;;;;;;3.05;1.70;;;;;;;;;;4249136;33;20058;-77
2023/07/08 09:19:01;;;;;;;11.20;2.30;;;;;;;;;;4249036;33;20065;-78
2023/07/08 09:21:33;;;;;;;2.45;1.85;;;;;;;;;;4249602;33;20079;-78
2023/07/08 09:24:04;;;;;;;3.08;1.77;;;;;;;;;;4255586;33;20059;-78
2023/07/08 09:26:30;;;;;;;3.70;1.58;;;;;;;;;;4260428;33;20035;-77
2023/07/08 09:28:56;;;;;;;2.20;1.83;;;;;;;;;;4249259;33;20136;-77
2023/07/08 09:31:25;;;;;;;1.60;1.50;;;;;;;;;;4236376;33;20094;-77
2023/07/08 09:33:52;;;;;;;2.47;1.30;;;;;;;;;;4237227;33;20080;-78
2023/07/08 09:36:22;;;;;;;4.62;1.42;;;;;;;;;;4249896;33;20059;-77
2023/07/08 09:38:49;;;;;;;1.58;1.33;;;;;;;;;;4251016;33;20610;-77
2023/07/08 09:41:28;;;;;;;2.12;1.92;;;;;;;;;;4237795;33;20077;-77
2023/07/08 09:44:02;;;;;;;12.37;1.60;;;;;;;;;;4236222;33;20045;-78
2023/07/08 09:46:28;;;;;;;2.55;1.73;;;;;;;;;;4216089;34;20090;-77
2023/07/08 09:48:56;;;;;;;4.65;2.60;;;;;;;;;;4211109;34;20044;-77
2023/07/08 09:51:23;;;;;;;1.80;1.70;;;;;;;;;;4209316;34;20051;-77
2023/07/08 09:53:49;;;;;;;1.50;1.40;;;;;;;;;;4208935;34;20136;-76
2023/07/08 09:56:15;;;;;;;9.30;1.55;;;;;;;;;;4208851;34;20434;-78
2023/07/08 09:58:44;;;;;;;5.37;1.87;;;;;;;;;;4208841;34;20066;-79
2023/07/08 10:01:15;;;;;;;6.22;1.40;;;;;;;;;;4206424;34;20081;-79
2023/07/08 10:03:41;;;;;;;;;;;;;;;;;;4223328;34;20068;-77
2023/07/08 10:06:17;;;;;;;1.37;1.37;;;;;;;;;;4226026;33;19961;-77
2023/07/08 10:08:44;;;;;;;2.17;1.42;;;;;;;;;;4234794;33;20441;-77
2023/07/08 10:11:16;;;;;;;4.40;2.70;;;;;;;;;;4236211;33;20042;-77
2023/07/08 10:13:45;;;;;;;5.62;1.62;;;;;;;;;;4232785;33;20423;-79
2023/07/08 10:16:16;;;;;;;4.97;1.70;;;;;;;;;;4227841;33;20047;-78
2023/07/08 10:18:43;;;;;;;3.78;1.73;;;;;;;;;;4240270;33;20046;-78
2023/07/08 10:21:14;;;;;;;1.45;1.33;;;;;;;;;;4233071;33;20318;-78
2023/07/08 10:23:49;;;;;;;5.72;1.73;;;;;;;;;;4238771;33;20050;-77
2023/07/08 10:26:15;;;;;;;1.65;1.37;;;;;;;;;;4237185;33;20054;-76
2023/07/08 10:28:41;;;;;;;4.70;1.87;;;;;;;;;;4250423;33;20091;-78
2023/07/08 10:31:14;;;;;;;2.03;1.83;;;;;;;;;;4240974;33;20442;-78
2023/07/08 10:33:47;;;;;;;3.75;1.50;;;;;;;;;;4240443;33;20058;-78
2023/07/08 10:36:13;;;;;;;5.22;1.77;;;;;;;;;;4247651;33;20533;-77
2023/07/08 10:38:47;;;;;;;4.07;1.95;;;;;;;;;;4250593;33;20083;-78
2023/07/08 10:41:23;;;;;;;1.87;1.75;;;;;;;;;;4253228;33;20065;-77
2023/07/08 10:44:04;;;;;;;2.45;1.90;;;;;;;;;;4251503;33;20046;-75
2023/07/08 10:46:30;;;;;;;2.80;1.67;;;;;;;;;;4252570;33;20145;-76
2023/07/08 10:49:24;;;;;;;1.50;1.40;;;;;;;;;;4253240;33;20158;-78
2023/07/08 10:51:53;;;;;;;1.67;1.60;;;;;;;;;;4252302;33;20034;-78
2023/07/08 10:54:25;;;;;;;1.98;1.87;;;;;;;;;;4239043;33;20416;-79
2023/07/08 10:56:51;;;;;;;2.42;1.80;;;;;;;;;;4238811;33;20054;-77
2023/07/08 10:59:34;;;;;;;4.20;1.87;;;;;;;;;;4228103;33;20239;-76
2023/07/08 11:02:03;;;;;;;7.20;1.55;;;;;;;;;;4371805;28;20042;-79
2023/07/08 11:04:48;;;;;;;4.28;1.67;;;;;;;;;;4235751;33;20069;-78
2023/07/08 11:07:37;;;;;;;5.90;1.95;;;;;;;;;;4239238;33;20039;-78
2023/07/08 11:10:24;;;;;;;4.47;1.90;;;;;;;;;;4237611;33;20058;-77
2023/07/08 11:12:53;;;;;;;7.07;1.80;;;;;;;;;;4203268;33;20079;-78
2023/07/08 11:15:23;;;;;;;5.12;2.50;;;;;;;;;;4237812;33;20376;-78
2023/07/08 11:17:52;;;;;;;2.00;1.90;;;;;;;;;;4236856;33;20047;-78
2023/07/08 11:20:23;;;;;;;5.32;1.80;;;;;;;;;;4238915;33;20058;-79
2023/07/08 11:22:52;;;;;;;6.62;2.80;;;;;;;;;;4237623;33;20060;-79
2023/07/08 11:25:21;;;;;;;5.40;2.15;;;;;;;;;;4252397;33;20042;-78
2023/07/08 11:27:48;;;;;;;2.92;2.10;;;;;;;;;;4264776;33;20068;-79
2023/07/08 11:30:16;;;;;;;3.70;1.98;;;;;;;;;;4265753;33;20079;-79
2023/07/08 11:32:43;;;;;;;2.17;1.95;;;;;;;;;;4251491;33;20103;-79
2023/07/08 11:35:22;;;;;;;2.65;1.75;;;;;;;;;;4239103;33;20072;-78
2023/07/08 11:37:49;;;;;;;1.80;1.75;;;;;;;;;;4238039;33;20068;-78
2023/07/08 11:40:21;;;;;;;3.53;1.77;;;;;;;;;;4238913;33;20088;-78
2023/07/08 11:42:49;;;;;;;4.00;1.90;;;;;;;;;;4237932;33;20417;-78
2023/07/08 11:45:15;;;;;;;6.28;1.58;;;;;;;;;;4238084;33;20072;-78
2023/07/08 11:47:47;;;;;;;5.47;1.90;;;;;;;;;;4235924;33;20038;-78
2023/07/08 11:50:22;;;;;;;1.42;1.42;;;;;;;;;;4236535;33;20058;-78
2023/07/08 11:53:07;;;;;;;3.45;1.67;;;;;;;;;;4235872;33;20504;-78
2023/07/08 11:55:52;;;;;;;2.92;1.87;;;;;;;;;;4235306;33;20074;-79
2023/07/08 11:58:26;;;;;;;3.97;1.67;;;;;;;;;;4238048;33;20069;-78
2023/07/08 12:00:59;;;;;;;1.70;1.62;;;;;;;;;;4234857;33;20064;-78
2023/07/08 12:03:37;;;;;;;3.28;1.70;;;;;;;;;;4242818;33;20090;-78
2023/07/08 12:06:23;;;;;;;2.53;2.33;;;;;;;;;;4250314;33;20047;-78
2023/07/08 12:08:51;;;;;;;3.17;2.15;;;;;;;;;;4246970;33;20030;-78
2023/07/08 12:11:18;;;;;;;4.50;1.80;;;;;;;;;;4250296;33;20507;-77
2023/07/08 12:13:44;;;;;;;5.12;1.67;;;;;;;;;;4266271;33;20072;-77
2023/07/08 12:16:11;;;;;;;2.08;1.98;;;;;;;;;;4268249;33;20387;-77
2023/07/08 12:18:39;;;;;;;2.35;1.67;;;;;;;;;;4265934;33;20046;-76
2023/07/08 12:21:07;;;;;;;4.60;1.70;;;;;;;;;;4247782;33;20563;-77
2023/07/08 12:23:33;;;;;;;3.65;2.05;;;;;;;;;;4245227;33;20552;-77
2023/07/08 12:26:08;;;;;;;2.78;1.77;;;;;;;;;;4237110;33;20046;-78
2023/07/08 12:28:36;;;;;;;5.90;1.52;;;;;;;;;;4204172;34;20127;-78
2023/07/08 12:31:02;;;;;;;2.75;1.65;;;;;;;;;;4209054;34;20271;-76
2023/07/08 12:33:30;;;;;;;5.45;1.60;;;;;;;;;;4209657;34;20221;-77
2023/07/08 12:35:56;;;;;;;4.18;1.55;;;;;;;;;;4207994;34;20055;-78
2023/07/08 12:38:27;;;;;;;3.60;1.70;;;;;;;;;;4207048;34;20131;-77
2023/07/08 12:40:54;;;;;;;3.33;1.73;;;;;;;;;;4208102;34;20078;-78
2023/07/08 12:43:21;;;;;;;1.80;1.70;;;;;;;;;;4209156;34;20051;-79
2023/07/08 12:45:47;;;;;;;2.20;1.75;;;;;;;;;;4209287;34;20059;-77
2023/07/08 12:48:13;;;;;;;1.85;1.75;;;;;;;;;;4219870;34;20030;-77
2023/07/08 12:50:39;;;;;;;6.53;2.40;;;;;;;;;;4223086;33;20058;-78
2023/07/08 12:53:09;;;;;;;2.42;2.00;;;;;;;;;;4223266;34;20055;-78
2023/07/08 12:55:40;;;;;;;3.15;1.67;;;;;;;;;;4220951;34;20420;-78
2023/07/08 12:58:06;;;;;;;;;;;;;;;;;;4218844;33;20068;-78
2023/07/08 13:00:38;;;;;;;2.10;2.00;;;;;;;;;;4270636;33;19952;-77
2023/07/08 13:03:06;;;;;;;10.20;2.00;;;;;;;;;;4284736;33;20041;-77
2023/07/08 13:05:33;;;;;;;1.60;1.50;;;;;;;;;;4284196;33;20070;-77
2023/07/08 13:07:59;;;;;;;14.00;1.80;;;;;;;;;;4285285;33;20029;-77
2023/07/08 13:10:28;;;;;;;1.75;1.75;;;;;;;;;;4285349;33;20068;-78
2023/07/08 13:12:57;;;;;;;7.93;1.95;;;;;;;;;;4286191;33;20033;-78
2023/07/08 13:15:27;;;;;;;6.72;1.87;;;;;;;;;;4285675;33;20056;-78
2023/07/08 13:17:54;;;;;;;2.83;1.70;;;;;;;;;;4279874;33;20071;-77
2023/07/08 13:20:20;;;;;;;3.67;2.08;;;;;;;;;;4276979;33;20070;-77
2023/07/08 13:22:50;;;;;;;2.03;1.92;;;;;;;;;;4265087;33;20414;-76
2023/07/08 13:25:18;;;;;;;2.22;2.03;;;;;;;;;;4221385;33;20047;-76
2023/07/08 13:27:54;;;;;;;2.35;2.15;;;;;;;;;;4205474;34;20063;-76
2023/07/08 13:30:23;;;;;;;4.37;2.03;;;;;;;;;;4209073;34;20063;-76
2023/07/08 13:33:11;;;;;;;1.92;1.80;;;;;;;;;;4208504;34;20043;-77
2023/07/08 13:35:39;;;;;;;2.15;2.05;;;;;;;;;;4205923;34;20112;-76
2023/07/08 13:38:05;;;;;;;7.25;2.15;;;;;;;;;;4209038;34;20180;-77
2023/07/08 13:40:32;;;;;;;1.80;1.73;;;;;;;;;;4208220;34;20475;-76
2023/07/08 13:42:58;;;;;;;2.12;2.00;;;;;;;;;;4209225;34;20100;-76
2023/07/08 13:45:31;;;;;;;2.72;1.98;;;;;;;;;;4209370;34;20055;-76
2023/07/08 13:48:10;;;;;;;2.12;1.70;;;;;;;;;;4206603;34;20162;-76
2023/07/08 13:50:44;;;;;;;9.35;2.10;;;;;;;;;;4193841;34;20390;-76
2023/07/08 13:53:34;;;;;;;2.83;2.62;;;;;;;;;;4201256;34;20400;-76
2023/07/08 13:56:02;;;;;;;2.22;2.12;;;;;;;;;;4219676;34;20062;-75
2023/07/08 13:58:29;;;;;;;1.95;1.73;;;;;;;;;;4223147;34;20117;-76
2023/07/08 14:00:56;;;;;;;1.70;1.60;;;;;;;;;;4223004;34;20400;-76
2023/07/08 14:03:23;;;;;;;3.30;1.90;;;;;;;;;;4231064;33;20456;-77
2023/07/08 14:05:49;;;;;;;1.85;1.73;;;;;;;;;;4233919;33;20062;-76
2023/07/08 14:08:17;;;;;;;4.93;1.70;;;;;;;;;;4223994;33;20084;-75
2023/07/08 14:10:44;;;;;;;3.47;1.70;;;;;;;;;;4223801;34;20034;-76
2023/07/08 14:13:10;;;;;;;1.55;1.52;;;;;;;;;;4222893;34;20030;-78
2023/07/08 14:15:38;;;;;;;2.05;1.85;;;;;;;;;;4222687;33;20078;-76
2023/07/08 14:18:05;;;;;;;3.40;2.62;;;;;;;;;;4226210;34;20047;-76
2023/07/08 14:20:32;;;;;;;2.53;1.87;;;;;;;;;;4225918;34;20080;-76
2023/07/08 14:22:58;;;;;;;2.05;1.95;;;;;;;;;;4225350;34;20223;-76
2023/07/08 14:25:24;;;;;;;3.60;1.87;;;;;;;;;;4223547;34;20372;-77
2023/07/08 14:27:50;;;;;;;1.87;1.77;;;;;;;;;;4225621;34;20042;-76
2023/07/08 14:30:17;;;;;;;2.03;1.92;;;;;;;;;;4239311;33;20505;-76
2023/07/08 14:32:43;;;;;;;2.42;2.20;;;;;;;;;;4237179;33;20820;-76
2023/07/08 14:35:10;;;;;;;1.85;1.73;;;;;;;;;;4239251;33;20188;-77
2023/07/08 14:37:36;;;;;;;9.02;1.60;;;;;;;;;;4222769;33;20065;-76
2023/07/08 14:40:24;;;;;;;4.82;1.87;;;;;;;;;;4225350;33;20528;-77
2023/07/08 14:42:54;;;;;;;2.15;1.73;;;;;;;;;;4237001;33;20038;-78
2023/07/08 14:45:20;;;;;;;1.87;1.77;;;;;;;;;;4235244;33;20602;-77
2023/07/08 14:47:46;;;;;;;1.60;1.60;;;;;;;;;;4252304;33;20145;-75
2023/07/08 14:50:14;;;;;;;5.28;1.92;;;;;;;;;;4252987;33;20075;-74
2023/07/08 14:52:40;;;;;;;3.65;2.60;;;;;;;;;;4266651;33;20058;-75
2023/07/08 14:55:07;;;;;;;2.53;1.85;;;;;;;;;;4267484;33;20063;-74
2023/07/08 14:57:39;;;;;;;3.25;1.98;;;;;;;;;;4265360;33;20116;-76
2023/07/08 15:00:06;;;;;;;10.77;2.95;;;;;;;;;;4267442;33;20066;-76
2023/07/08 15:02:34;;;;;;;10.80;2.25;;;;;;;;;;4273936;33;20071;-77
2023/07/08 15:05:01;;;;;;;4.65;2.30;;;;;;;;;;4280883;33;20093;-76
2023/07/08 15:07:27;;;;;;;1.95;1.75;;;;;;;;;;4280233;33;20066;-76
2023/07/08 15:09:53;;;;;;;5.55;2.42;;;;;;;;;;4281221;33;20196;-77
2023/07/08 15:12:19;;;;;;;1.95;1.80;;;;;;;;;;4281288;33;20060;-76
2023/07/08 15:14:46;;;;;;;3.80;2.08;;;;;;;;;;4281189;33;20049;-79
2023/07/08 15:17:19;;;;;;;2.00;1.87;;;;;;;;;;4281374;33;20224;-78
2023/07/08 15:19:51;;;;;;;2.67;1.65;;;;;;;;;;4280465;33;20046;-77
2023/07/08 15:22:17;;;;;;;5.93;2.00;;;;;;;;;;4281314;33;20160;-77
2023/07/08 15:24:43;;;;;;;3.10;1.87;;;;;;;;;;4281239;33;20045;-79
2023/07/08 15:27:12;;;;;;;2.78;2.17;;;;;;;;;;4281322;33;20561;-76
2023/07/08 15:29:38;;;;;;;2.62;2.08;;;;;;;;;;4279553;33;20092;-76
2023/07/08 15:32:09;;;;;;;7.90;2.03;;;;;;;;;;4279358;33;20057;-79
2023/07/08 15:34:36;;;;;;;1.98;1.62;;;;;;;;;;4281384;33;20037;-78
2023/07/08 15:37:02;;;;;;;6.53;2.08;;;;;;;;;;4270475;33;20068;-78
2023/07/08 15:39:28;;;;;;;2.00;1.90;;;;;;;;;;4277786;33;20096;-80
2023/07/08 15:41:54;;;;;;;6.75;2.05;;;;;;;;;;4258008;33;20068;-79
2023/07/08 15:44:21;;;;;;;2.22;2.08;;;;;;;;;;4260278;33;20455;-79
2023/07/08 15:46:48;;;;;;;6.18;2.70;;;;;;;;;;4257010;33;20034;-77
2023/07/08 15:49:16;;;;;;;2.50;2.20;;;;;;;;;;4260044;33;20046;-79
2023/07/08 15:51:42;;;;;;;5.68;2.05;;;;;;;;;;4250111;33;20108;-79
2023/07/08 15:54:09;;;;;;;4.07;1.95;;;;;;;;;;4222886;33;20051;-79
2023/07/08 15:56:36;;;;;;;3.35;2.12;;;;;;;;;;4211865;34;20064;-81
2023/07/08 15:59:02;;;;;;;4.60;2.30;;;;;;;;;;4208626;34;20110;-78
2023/07/08 16:01:28;;;;;;;7.03;1.65;;;;;;;;;;4180955;34;20072;-75
2023/07/08 16:03:55;;;;;;;4.72;1.90;;;;;;;;;;4179660;34;20436;-79
2023/07/08 16:06:21;;;;;;;5.30;2.35;;;;;;;;;;4182726;34;20039;-79
2023/07/08 16:08:48;;;;;;;5.95;2.08;;;;;;;;;;4178952;34;20102;-79
2023/07/08 16:11:15;;;;;;;5.70;2.62;;;;;;;;;;4167267;34;21002;-78
2023/07/08 16:13:43;;;;;;;5.20;2.37;;;;;;;;;;4180709;34;20052;-77
2023/07/08 16:16:10;;;;;;;6.90;2.20;;;;;;;;;;4197084;34;20108;-79
2023/07/08 16:18:37;;;;;;;1.80;1.70;;;;;;;;;;4195895;34;20039;-79
2023/07/08 16:21:03;;;;;;;8.43;2.50;;;;;;;;;;4196239;34;20031;-78
2023/07/08 16:23:30;;;;;;;6.72;2.50;;;;;;;;;;4200286;34;20059;-79
2023/07/08 16:25:57;;;;;;;2.20;2.10;;;;;;;;;;4206319;34;20051;-81
2023/07/08 16:28:43;;;;;;;7.03;2.03;;;;;;;;;;4232510;33;20467;-79
2023/07/08 16:31:10;;;;;;;2.50;2.22;;;;;;;;;;4263784;33;20073;-77
2023/07/08 16:33:37;;;;;;;2.65;2.28;;;;;;;;;;4288216;33;20045;-79
2023/07/08 16:36:03;;;;;;;1.98;1.85;;;;;;;;;;4294355;33;20049;-79
2023/07/08 16:38:29;;;;;;;2.30;2.20;;;;;;;;;;4292159;33;20053;-80
2023/07/08 16:40:55;;;;;;;2.70;2.50;;;;;;;;;;4250658;33;20046;-78
2023/07/08 16:43:27;;;;;;;10.18;2.17;;;;;;;;;;4249126;33;20113;-76
2023/07/08 16:45:53;;;;;;;3.15;2.10;;;;;;;;;;4248595;33;20042;-80
2023/07/08 16:48:20;;;;;;;3.08;2.17;;;;;;;;;;4237357;33;20522;-80
2023/07/08 16:50:46;;;;;;;2.87;2.45;;;;;;;;;;4237103;33;20452;-80